createdAt,value
2022-12-07T00:02:45.351Z,59.11
2022-12-07T00:07:01.516Z,58.29
2022-12-07T00:11:23.359Z,58.60
2022-12-07T00:15:39.467Z,57.80
2022-12-07T00:19:55.565Z,58.64
2022-12-07T00:24:14.986Z,59.46
2022-12-07T00:28:31.167Z,59.54
2022-12-07T00:32:47.339Z,59.53
2022-12-07T00:37:03.547Z,59.92
2022-12-07T00:41:22.732Z,60.17
2022-12-07T00:45:38.961Z,59.94
2022-12-07T00:49:55.197Z,58.89
2022-12-07T00:54:11.438Z,59.78
2022-12-07T00:58:27.669Z,58.65
2022-12-07T01:02:43.859Z,59.63
2022-12-07T01:07:00.097Z,59.37
2022-12-07T01:11:18.961Z,59.20
2022-12-07T01:15:35.074Z,59.06
2022-12-07T01:19:51.173Z,59.66
2022-12-07T01:24:10.529Z,59.96
2022-12-07T01:28:26.873Z,59.41
2022-12-07T01:32:43.105Z,59.31
2022-12-07T01:36:59.332Z,59.83
2022-12-07T01:41:15.896Z,59.92
2022-12-07T01:45:42.489Z,60.72
2022-12-07T01:49:58.968Z,60.85
2022-12-07T01:54:15.772Z,59.62
2022-12-07T01:58:32.061Z,59.50
2022-12-07T02:02:56.650Z,60.12
2022-12-07T02:07:13.152Z,60.33
2022-12-07T02:11:29.377Z,60.37
2022-12-07T02:16:00.699Z,60.50
2022-12-07T02:20:29.739Z,61.17
2022-12-07T02:25:06.992Z,61.25
2022-12-07T02:29:55.616Z,60.38
2022-12-07T02:34:16.748Z,60.64
2022-12-07T02:38:43.375Z,60.73
2022-12-07T02:43:08.017Z,61.24
2022-12-07T02:47:26.128Z,60.71
2022-12-07T02:51:44.697Z,60.42
2022-12-07T02:56:21.594Z,61.47
2022-12-07T03:00:47.830Z,61.53
2022-12-07T03:05:14.095Z,61.03
2022-12-07T03:09:56.427Z,61.37
2022-12-07T03:14:28.416Z,61.15
2022-12-07T03:18:50.257Z,61.81
2022-12-07T03:23:10.579Z,61.66
2022-12-07T03:27:49.920Z,62.05
2022-12-07T03:32:30.408Z,62.69
2022-12-07T03:37:11.377Z,62.71
2022-12-07T03:41:30.877Z,62.42
2022-12-07T03:46:02.153Z,62.42
2022-12-07T03:50:32.211Z,62.25
2022-12-07T03:55:06.428Z,62.62
2022-12-07T03:59:23.242Z,63.33
2022-12-07T04:03:39.431Z,63.08
2022-12-07T04:07:55.657Z,62.79
2022-12-07T04:12:11.789Z,62.94
2022-12-07T04:16:28.079Z,62.90
2022-12-07T04:20:44.314Z,63.08
2022-12-07T04:25:00.391Z,62.20
2022-12-07T04:29:17.040Z,62.20
2022-12-07T04:33:33.184Z,62.72
2022-12-07T04:37:49.323Z,62.17
2022-12-07T04:42:05.650Z,62.54
2022-12-07T04:46:22.069Z,62.46
2022-12-07T04:50:44.521Z,63.36
2022-12-07T04:55:02.332Z,63.16
2022-12-07T04:59:18.850Z,62.78
2022-12-07T05:03:35.072Z,62.36
2022-12-07T05:07:51.461Z,62.29
2022-12-07T05:12:07.670Z,62.67
2022-12-07T05:16:23.992Z,62.78
2022-12-07T05:20:42.805Z,63.11
2022-12-07T05:24:59.115Z,63.57
2022-12-07T05:29:16.886Z,62.81
2022-12-07T05:33:33.078Z,63.04
2022-12-07T05:37:49.354Z,62.54
2022-12-07T05:42:15.213Z,63.32
2022-12-07T05:46:31.694Z,63.47
2022-12-07T05:50:50.542Z,62.98
2022-12-07T05:55:08.239Z,63.49
2022-12-07T05:59:24.665Z,63.96
2022-12-07T06:03:40.897Z,63.97
2022-12-07T06:08:00.257Z,64.37
2022-12-07T06:12:35.494Z,63.64
2022-12-07T06:16:51.800Z,63.38
2022-12-07T06:21:07.999Z,64.84
2022-12-07T06:25:24.213Z,63.81
2022-12-07T06:29:40.449Z,64.56
2022-12-07T06:34:04.731Z,63.92
2022-12-07T06:38:23.655Z,65.30
2022-12-07T06:42:39.867Z,65.49
2022-12-07T06:47:18.968Z,66.10
2022-12-07T06:51:33.428Z,66.85
2022-12-07T06:55:49.648Z,66.36
2022-12-07T07:00:06.833Z,68.20
2022-12-07T07:04:23.157Z,68.47
2022-12-07T07:08:39.933Z,67.72
2022-12-07T07:12:59.068Z,67.41
2022-12-07T07:17:15.354Z,67.75
2022-12-07T07:21:31.563Z,66.24
2022-12-07T07:25:47.939Z,67.91
2022-12-07T07:30:04.955Z,67.87
2022-12-07T07:34:21.388Z,66.36
2022-12-07T07:38:37.583Z,65.57
2022-12-07T07:42:54.998Z,65.52
2022-12-07T07:47:11.304Z,64.78
2022-12-07T07:51:29.576Z,64.32
2022-12-07T07:55:57.672Z,64.78
2022-12-07T08:00:15.511Z,66.02
2022-12-07T08:04:33.818Z,65.93
2022-12-07T08:08:49.985Z,66.13
2022-12-07T08:13:11.952Z,64.93
2022-12-07T08:17:30.314Z,64.77
2022-12-07T08:21:46.503Z,63.34
2022-12-07T08:26:07.349Z,65.12
2022-12-07T08:30:23.827Z,63.93
2022-12-07T08:34:40.055Z,64.31
2022-12-07T08:39:29.930Z,66.89
2022-12-07T08:43:32.836Z,62.79
2022-12-07T08:48:27.537Z,63.60
2022-12-07T08:52:46.061Z,60.94
2022-12-07T08:57:02.269Z,60.23
2022-12-07T09:01:18.460Z,60.91
2022-12-07T09:05:35.375Z,58.81
2022-12-07T09:09:51.510Z,58.76
2022-12-07T09:14:07.645Z,58.89
2022-12-07T09:18:25.832Z,58.76
2022-12-07T09:22:42.127Z,58.25
2022-12-07T09:26:59.192Z,57.62
2022-12-07T09:31:25.911Z,55.62
2022-12-07T09:35:49.575Z,56.48
2022-12-07T09:40:07.046Z,56.32
2022-12-07T09:44:26.769Z,56.13
2022-12-07T09:48:44.147Z,56.86
2022-12-07T09:53:26.095Z,58.66
2022-12-07T09:57:45.084Z,58.67
2022-12-07T10:02:39.205Z,59.01
2022-12-07T10:06:55.301Z,58.55
2022-12-07T10:11:12.338Z,58.28
2022-12-07T10:15:46.892Z,61.20
2022-12-07T10:20:25.522Z,58.95
2022-12-07T10:24:44.010Z,58.64
2022-12-07T10:29:23.901Z,59.84
2022-12-07T10:34:03.715Z,59.69
2022-12-07T10:38:23.797Z,58.77
2022-12-07T10:42:40.059Z,58.37
2022-12-07T10:46:59.477Z,57.30
2022-12-07T10:51:24.795Z,56.62
2022-12-07T10:56:18.854Z,56.37
2022-12-07T11:00:58.286Z,57.74
2022-12-07T11:05:34.358Z,58.11
2022-12-07T11:10:11.713Z,56.38
2022-12-07T11:14:46.935Z,57.19
2022-12-07T11:19:11.220Z,56.52
2022-12-07T11:23:40.103Z,56.46
2022-12-07T11:28:16.529Z,55.87
2022-12-07T11:32:54.175Z,56.09
2022-12-07T11:37:18.188Z,55.31
2022-12-07T11:41:39.950Z,55.87
2022-12-07T11:46:02.894Z,54.01
2022-12-07T11:50:40.594Z,53.73
2022-12-07T11:55:00.742Z,52.12
2022-12-07T11:59:27.224Z,53.14
2022-12-07T12:03:52.525Z,52.53
2022-12-07T12:19:23.008Z,48.63
2022-12-07T12:23:55.635Z,49.23
2022-12-07T12:28:50.508Z,50.91
2022-12-07T12:33:23.820Z,50.37
2022-12-07T12:37:44.896Z,51.78
2022-12-07T12:42:01.600Z,51.13
2022-12-07T12:46:34.752Z,50.97
2022-12-07T12:51:10.746Z,52.07
2022-12-07T12:55:47.996Z,50.77
2022-12-07T13:00:22.385Z,50.50
2022-12-07T13:04:55.868Z,51.62
2022-12-07T13:09:24.642Z,51.34
2022-12-07T13:13:40.712Z,52.69
2022-12-07T13:18:00.013Z,52.55
2022-12-07T13:22:40.273Z,53.70
2022-12-07T13:26:58.761Z,53.19
2022-12-07T13:31:40.779Z,50.48
2022-12-07T13:35:59.863Z,49.85
2022-12-07T13:40:21.609Z,50.95
2022-12-07T13:44:45.035Z,55.58
2022-12-07T13:49:01.173Z,55.29
2022-12-07T13:53:23.760Z,54.80
2022-12-07T13:57:42.195Z,55.34
2022-12-07T14:01:58.527Z,56.57
2022-12-07T14:06:24.242Z,54.77
2022-12-07T14:10:55.827Z,53.67
2022-12-07T14:15:26.763Z,56.12
2022-12-07T14:19:48.586Z,55.27
2022-12-07T14:24:12.528Z,51.33
2022-12-07T14:28:31.030Z,46.81
2022-12-07T14:32:49.858Z,45.89
2022-12-07T14:37:09.253Z,48.98
2022-12-07T14:41:43.761Z,51.86
2022-12-07T14:46:00.139Z,56.36
2022-12-07T14:50:20.087Z,56.04
2022-12-07T14:54:36.267Z,57.73
2022-12-07T14:58:52.574Z,58.43
2022-12-07T15:03:08.825Z,57.81
2022-12-07T15:07:25.086Z,56.19
2022-12-07T15:11:44.731Z,57.47
2022-12-07T15:16:01.396Z,56.86
2022-12-07T15:20:18.199Z,57.50
2022-12-07T15:24:34.887Z,58.59
2022-12-07T15:28:51.074Z,57.91
2022-12-07T15:33:07.584Z,57.43
2022-12-07T15:37:23.741Z,58.71
2022-12-07T15:41:39.945Z,59.44
2022-12-07T15:45:56.382Z,59.85
2022-12-07T15:50:19.444Z,58.97
2022-12-07T15:54:35.629Z,59.84
2022-12-07T15:58:51.823Z,57.45
2022-12-07T16:03:12.085Z,56.52
2022-12-07T16:07:32.447Z,56.46
2022-12-07T16:11:50.598Z,56.49
2022-12-07T16:16:14.291Z,56.79
2022-12-07T16:20:30.487Z,56.76
2022-12-07T16:24:48.663Z,56.44
2022-12-07T16:29:06.924Z,56.38
2022-12-07T16:33:23.065Z,56.72
2022-12-07T16:37:41.606Z,56.27
2022-12-07T16:41:57.681Z,56.30
2022-12-07T16:46:16.441Z,55.65
2022-12-07T16:50:32.807Z,55.55
2022-12-07T16:54:51.886Z,54.74
2022-12-07T16:59:08.687Z,54.61
2022-12-07T17:03:24.843Z,54.23
2022-12-07T17:07:41.111Z,54.59
2022-12-07T17:11:57.392Z,54.60
2022-12-07T17:16:13.712Z,54.59
2022-12-07T17:20:29.923Z,55.08
2022-12-07T17:24:46.010Z,55.17
2022-12-07T17:29:02.339Z,55.27
2022-12-07T17:33:18.510Z,55.51
2022-12-07T17:37:34.866Z,55.65
2022-12-07T17:42:09.448Z,56.18
2022-12-07T17:46:26.098Z,55.42
2022-12-07T17:51:00.547Z,55.63
2022-12-07T17:55:17.499Z,56.09
2022-12-07T17:59:33.770Z,55.09
2022-12-07T18:03:49.917Z,54.65
2022-12-07T18:08:06.834Z,54.80
2022-12-07T18:12:23.080Z,54.61
2022-12-07T18:16:39.282Z,54.81
2022-12-07T18:20:55.487Z,55.23
2022-12-07T18:25:11.591Z,55.25
2022-12-07T18:29:28.261Z,55.81
2022-12-07T18:33:45.580Z,56.36
2022-12-07T18:38:01.847Z,57.81
2022-12-07T18:42:17.953Z,57.00
2022-12-07T18:46:35.627Z,56.96
2022-12-07T18:51:02.862Z,56.61
2022-12-07T18:55:18.941Z,56.52
2022-12-07T18:59:47.056Z,56.29
2022-12-07T19:04:03.651Z,55.98
2022-12-07T19:08:20.005Z,56.61
2022-12-07T19:12:36.559Z,57.02
2022-12-07T19:16:56.109Z,57.33
2022-12-07T19:21:12.303Z,57.81
2022-12-07T19:25:28.472Z,57.84
2022-12-07T19:29:45.280Z,57.48
2022-12-07T19:34:01.369Z,56.99
2022-12-07T19:38:17.459Z,56.26
2022-12-07T19:42:35.870Z,56.12
2022-12-07T19:46:57.327Z,56.79
2022-12-07T19:51:17.288Z,56.76
2022-12-07T19:55:33.473Z,56.58
2022-12-07T19:59:52.017Z,56.69
2022-12-07T20:04:13.930Z,56.35
2022-12-07T20:08:30.654Z,57.04
2022-12-07T20:13:06.066Z,57.25
2022-12-07T20:17:22.454Z,57.01
2022-12-07T20:21:39.300Z,57.63
2022-12-07T20:25:56.192Z,57.44
2022-12-07T20:30:12.616Z,58.04
2022-12-07T20:34:28.914Z,57.80
2022-12-07T20:38:45.928Z,58.70
2022-12-07T20:43:02.139Z,59.62
2022-12-07T20:47:19.011Z,58.92
2022-12-07T20:51:35.404Z,59.45
2022-12-07T20:55:51.555Z,59.41
2022-12-07T21:00:08.639Z,59.61
2022-12-07T21:04:24.807Z,58.49
2022-12-07T21:08:46.490Z,58.20
2022-12-07T21:13:02.667Z,58.55
2022-12-07T21:17:18.817Z,58.25
2022-12-07T21:21:35.205Z,58.48
2022-12-07T21:25:51.435Z,58.78
2022-12-07T21:30:08.110Z,58.35
2022-12-07T21:34:24.359Z,58.67
2022-12-07T21:38:40.535Z,58.40
2022-12-07T21:42:56.680Z,57.93
2022-12-07T21:47:12.766Z,57.97
2022-12-07T21:51:30.459Z,58.45
2022-12-07T21:55:46.823Z,57.34
2022-12-07T22:00:03.039Z,57.38
2022-12-07T22:04:24.637Z,57.70
2022-12-07T22:08:41.830Z,57.91
2022-12-07T22:12:58.960Z,56.97
2022-12-07T22:17:15.054Z,56.74
2022-12-07T22:21:31.745Z,57.28
2022-12-07T22:25:47.851Z,57.18
2022-12-07T22:30:06.163Z,57.93
2022-12-07T22:34:22.764Z,57.52
2022-12-07T22:38:40.360Z,58.33
2022-12-07T22:42:58.153Z,58.05
2022-12-07T22:47:15.025Z,59.06
2022-12-07T22:51:39.507Z,59.33
2022-12-07T22:55:55.677Z,59.43
2022-12-07T23:00:12.493Z,60.46
2022-12-07T23:04:28.936Z,59.50
2022-12-07T23:08:45.472Z,59.47
2022-12-07T23:13:20.273Z,58.38
2022-12-07T23:17:37.042Z,59.93
2022-12-07T23:21:53.452Z,59.84
2022-12-07T23:26:11.781Z,59.44
2022-12-07T23:30:27.917Z,59.42
2022-12-07T23:34:44.749Z,59.01
2022-12-07T23:39:00.990Z,59.65
2022-12-07T23:43:17.133Z,59.60
2022-12-07T23:47:33.299Z,59.85
2022-12-07T23:51:49.440Z,60.03
2022-12-07T23:56:05.955Z,59.15
